Résultats événements

10/06/2018 Triathlon de Chalain 2018-Triathlon XS Jeunes




Sortie natation

Arrivée vélo

Arrivée
Categorie:

Clt Temps de course Nom Dos Cat Temps sur l'intervalle Clt int. Gain
1 00:21:57 NESSAKH Elias 101 MMI 00:08:08 2 2
2 00:22:02 CHAUVIN Titouan 42 MMI 00:07:51 1 9
3 00:22:04 RAVINET Yann 91 MMI 00:08:14 3 1
4 00:22:18 ROUX Corentin 61 MMI 00:08:26 5 3
5 00:22:21 MAILLOT Nicolas 119 MBE 00:08:30 7 0
6 00:22:23 BONZI Ugolin 31 MMI 00:08:30 6 2
7 00:22:24 HEQUET Thomas 83 MMI 00:08:36 9 -5
8 00:22:46 POSTAL Pierre 59 MMI 00:08:55 16 -2
9 00:22:55 DUNAND Killian 36 MMI 00:09:34 33 -8
10 00:23:00 FAVIER Matthias 73 MMI 00:08:52 14 0
11 00:23:12 LATIL Marion 53 FMI 00:08:31 8 14
12 00:23:13 DORIGO Romain 3 MMI 00:08:38 10 8
13 00:23:19 ROGIVUE Adrien 123 MMI 00:08:54 15 0
14 00:23:21 LOISY Raphael 76 MMI 00:08:59 18 -2
15 00:23:26 GRIVAULT Marius 98 MBE 00:08:51 13 4
16 00:23:30 TARTAVEZ Axel 10 MMI 00:08:25 4 15
17 00:23:37 PATRY Anne 58 FMI 00:08:57 17 7
18 00:23:47 NESSAKH Adam 100 MBE 00:08:42 11 14
19 00:23:52 TSCHENN Zélie 111 FMI 00:09:11 22 7
20 00:24:06 GABET BRUGVIN Mathis 50 MMI 00:09:07 21 8
21 00:24:09 BARLIER Antonin 106 MMI 00:09:35 34 -4
22 00:24:12 SUDRE Jane 124 FMI 00:09:33 31 1
23 00:24:14 MICHAUD LABROSSE Paul emile 9 MMI 00:09:48 45 -7
24 00:24:18 BETI Laura 15 FMI 00:09:52 50 -9
25 00:24:25 FISCHBACH Lucas 102 MMI 00:09:51 48 -7
26 00:24:31 DEMORTIERE Marie 95 FBE 00:09:27 26 4
27 00:24:33 COLIN Augustine 43 FMI 00:09:56 52 -6
28 00:24:39 DEMORTIERE Alexis 96 MMI 00:09:40 39 -1
29 00:24:39 MALVEZIN Antoine 110 MBE 00:09:29 29 6
30 00:24:49 DEVAUX Alice 48 FMI 00:09:46 44 -1
31 00:25:01 LALLEMAND Ugo 33 MMI 00:08:50 12 23
32 00:25:04 LOISY Victor 75 MMI 00:10:26 67 -10
33 00:25:06 DEPARDIEU Simon 46 MBE 00:09:59 54 1
34 00:25:13 LE METAYER Léo 79 MBE 00:09:05 20 16
35 00:25:13 GUEDON Clement 51 MBE 00:09:13 25 12
36 00:25:13 LALANDE Elie 118 MBE 00:09:12 24 12
37 00:25:13 FAVIER Lucile 72 FBE 00:09:01 19 18
38 00:25:17 VICTOR Paul 130 MMI 00:09:28 27 3
39 00:25:25 NAUDIN Alix 77 MMI 00:10:02 56 0
40 00:25:26 AUVITU Oscar 70 MMI 00:10:10 57 -3
41 00:25:30 BETI Alexia 16 FMI 00:11:04 92 -27
42 00:25:31 ALIX Gabin 14 MBE 00:10:14 58 -4
43 00:25:35 FOIGNOT Maxence 30 MBE 00:09:42 42 0
44 00:25:37 DEVAUX Clemence 47 FBE 00:09:39 37 2
45 00:25:37 VALNET Jade 63 FMI 00:10:30 70 -12
46 00:25:42 VACCA Francesco 125 MBE 00:09:40 38 3
47 00:25:44 MATHIEU Enza 84 FBE 00:09:52 49 -5
48 00:25:45 SERRETTE Hugo 113 MMI 00:09:34 32 5
49 00:25:50 MANIN Victor 55 MBE 00:09:32 30 9
50 00:25:53 AUBER Juliette 40 FMI 00:09:37 35 7
51 00:26:01 DARRE Guillaume 71 MBE 00:09:28 28 9
52 00:26:01 GALLEZOT Marie 115 FMI 00:10:32 74 -12
53 00:26:10 HALBOURG Noa 6 MBE 00:09:55 51 3
54 00:26:25 JANNIOT Lilou 109 FBE 00:10:31 73 -10
55 00:26:35 LANCE Corentin 78 MBE 00:10:26 68 -3
56 00:26:38 VANDEMEULEBROUCKE Léane 112 FMI 00:10:30 71 -5
57 00:26:39 GIRARDET Charles 88 MBE 00:09:12 23 20
58 00:26:39 KERMICHE Adel 23 MBE 00:09:42 41 13
59 00:26:40 ALCARAS Maxence 105 MBE 00:10:43 80 -14
60 00:26:47 TAMBORINI Bastien 114 MMI 00:10:27 69 -1
61 00:26:55 HUOT MARCHAND Gregoire 52 MBE 00:09:41 40 13
62 00:27:01 GAGNEPAIN Adam 82 MBE 00:10:21 62 -1
63 00:27:03 BALLET Antoine 93 MBE 00:10:22 63 -1
64 00:27:04 DA EIRA Marine 94 FBE 00:10:23 64 -1
65 00:27:06 CHABOD Romane 28 FBE 00:22:23 123 -47
66 00:27:13 DENIZOT Mathis 44 MBE 00:10:23 65 3
67 00:27:16 VELASCO Quentin 11 MBE 00:10:31 72 -1
68 00:27:29 TRIPONEZ Maëline 68 MBE 00:10:02 55 8
69 00:27:37 THIERRY Aurelien 122 MMI 00:12:22 109 -33
70 00:27:45 APPOINTAIRE Simon 1 MBE 00:09:50 47 17
71 00:27:46 CHOUX Lucie 87 FBE 00:10:57 87 -3
72 00:27:50 JULIEN Mélina 74 FMI 00:11:05 93 -7
73 00:27:54 GERMAIN Sophie 128 FBE 00:10:20 60 8
74 00:28:04 SAINTVOIRIN Jules 62 MBE 00:10:20 61 9
75 00:28:10 RIGAUD Garance 92 FBE 00:10:44 81 0
76 00:28:10 FURFARO Fantine 49 FBE 00:10:26 66 8
77 00:28:20 FASSENET Juliette 4 FMI 00:10:50 85 1
78 00:28:20 VUILLEMIN Adele 90 FMI 00:11:24 105 -8
79 00:28:25 VUILLEMIN Armance 13 FBE 00:11:13 100 -6
80 00:28:27 AUVITU Melchior 69 MBE 00:09:58 53 16
81 00:28:28 MANIN Charline 56 FMI 00:11:46 107 -17
82 00:28:32 LENNE Capucine 54 FMI 00:10:42 79 4
83 00:28:33 PROST Garance 60 FBE 00:10:35 76 6
84 00:28:43 ALIX Lou salomé 39 FMI 00:11:11 98 -4
85 00:28:45 GOURAUD Jules 97 MBE 00:10:34 75 8
86 00:28:47 MARCY-VILBOURG Léonie 81 FMI 00:11:17 103 -7
87 00:28:49 LAFAILLE Nathan 116 MBE 00:09:44 43 13
88 00:28:49 VIENNY Tess 127 FBE 00:11:13 99 -6
89 00:28:50 FRACHON Emilie 5 FBE 00:10:47 82 2
90 00:28:52 ARNOULD Ysée 2 FMI 00:11:03 91 -5
91 00:28:59 CHARUEL Martin 108 MBE 00:11:02 90 -3
92 00:29:09 TRIMBUR Zoe 89 FBE 00:11:00 88 0
93 00:29:11 GUELLA Rayan 22 MMI 00:10:49 83 2
94 00:29:17 BENSACIL Daoud 20 MBE 00:09:38 36 12
95 00:29:25 LAFAILLE Alexis 117 MBE 00:11:11 97 -1
96 00:29:42 ZAOUI Qais 26 MBE 00:09:49 46 12
97 00:29:52 GRAND Julien 66 MMI 00:11:11 96 2
98 00:29:56 BRAGA-BRIQUEZ Mathis 107 MBE 00:12:56 114 -26
99 00:29:58 JANIN Lucie 38 FMI 00:13:10 116 -32
100 00:30:11 GRESSET Louis 67 MBE 00:10:51 86 4
101 00:30:12 BRANCHE Manoah 32 MMI 00:11:01 89 0
102 00:30:23 PROENCA Coline 86 FBE 00:11:10 95 0
103 00:30:31 MIRBEY Maxime 120 MBE 00:11:07 94 2
104 00:30:44 PETIT Pierre 129 MMI 00:12:42 111 -14
105 00:30:50 NICCOLETTI Tim 57 MBE 00:12:18 108 -8
106 00:30:53 MONROLIN Esther 35 FBE 00:11:14 101 1
107 00:31:04 CAILLER Victor 34 MBE 00:10:40 77 3
108 00:31:15 POUX Elio 85 MBE 00:10:15 59 6
109 00:31:19 MASSON Enzo 8 MMI 00:10:42 78 2
110 00:31:32 ROCH Nathan 103 MMI 00:12:53 113 -12
111 00:31:42 ELKHALFET Koussaye 21 MBE 00:12:26 110 -8
112 00:31:47 VERCOUTRE Adeline 25 FMI 00:10:49 84 1
113 00:32:51 FASSENET Lorette 29 FMI 00:11:37 106 2
114 00:33:09 FAIVRE Evan 65 MBE 00:11:15 102 3
115 00:33:10 DURAND Aurele 37 MBE 00:11:18 104 1
116 00:33:14 LILLETTE Paul-antoine 80 MBE 00:12:52 112 -7
117 00:33:49 DENIZOT Lara 45 FMI 00:13:09 115 -5
118 00:37:12 BENBEKTHI Anis 18 MBE 00:13:55 117 2
119 00:37:18 BORG Isaline 41 FBE 00:13:59 118 2
120 00:38:29 ZULFIQUAR Samy 27 MBE 00:15:01 119 2
121 00:39:46 SCALOGNA Olivia 104 FBE 00:15:26 120 3
122 00:39:46 MAGNIEN Noémie 99 FMI 00:15:38 121 1
123 00:43:48 LAHBADI Najwa 7 FBE 00:16:26 122 2
124 00:55:11 DURAND Lucien 64 MBE 00:32:04 124 -5
125 00:57:45 BENSACIL Ilyes 19 MBE 00:35:13 125 -7


Restez connectés à vos performances